Somerset Center, Michigan
Current Conditions -  °F | °C
As of 3:54 PM on Tuesday 21 Oct 2014 (Local Time) from KJYM Reporting Station
Overcast Overcast  
Wind Chill: 44°   Ceiling: 3100
Heat Index: 47°   Visibility: 10mi
Dew Point: 39°   Wind: 7mph
Humidity: 73%   Direction: 20°NNE
Pressure: 30.1"   Gusts: NA
Location:  42.05°N, 84.41°W
Report Text: KJYM 211954Z AUTO 02006KT 10SM SCT024 OVC031 09/04 A3010 RMK AO2 T00860040
Loading
Personal Weather Stations






























Interactive Weather Map
Tropical Storm Tracking
New forecast layout! Learn more

10-Day Weather Forecast

Advertisements
Track Severe Weather on mobile